Time;durP1;ratioP1;P1;durP2;ratioP2;P2;SDS_P1;SDS_P2;PMS_P1;PMS_P2;Temp;Humidity;BMP_temperature;BMP_pressure;BME280_temperature;BME280_humidity;BME280_pressure;Samples;Min_cycle;Max_cycle;Signal;HPM_P1;HPM_P2
2023/03/14 00:02:21;;;;;;;23.33;4.50;;;9.60;99.90;;;;;;5101063;28;20119;-83
2023/03/14 00:04:47;;;;;;;21.90;3.88;;;9.60;99.90;;;;;;5110541;28;20065;-83
2023/03/14 00:07:13;;;;;;;22.40;4.18;;;9.70;99.90;;;;;;5088402;28;20043;-83
2023/03/14 00:09:39;;;;;;;18.05;3.75;;;9.70;99.90;;;;;;5102680;28;20122;-83
2023/03/14 00:12:04;;;;;;;24.85;4.03;;;9.80;99.90;;;;;;5090863;28;20100;-84
2023/03/14 00:14:31;;;;;;;18.27;4.32;;;9.80;99.90;;;;;;5106787;28;20031;-83
2023/03/14 00:16:57;;;;;;;16.75;4.22;;;9.90;99.90;;;;;;5146034;27;20047;-83
2023/03/14 00:19:22;;;;;;;21.27;3.53;;;9.90;99.90;;;;;;5104427;28;20036;-84
2023/03/14 00:21:48;;;;;;;19.95;3.47;;;10.00;99.90;;;;;;5086206;28;20039;-83
2023/03/14 00:24:13;;;;;;;19.40;3.30;;;10.00;99.90;;;;;;5124144;27;20131;-83
2023/03/14 00:26:39;;;;;;;22.60;4.28;;;10.00;99.90;;;;;;5144512;27;20031;-84
2023/03/14 00:29:05;;;;;;;19.95;3.80;;;9.90;99.90;;;;;;5142649;27;20054;-84
2023/03/14 00:31:30;;;;;;;15.82;3.67;;;9.90;99.90;;;;;;5091126;28;20039;-82
2023/03/14 00:33:56;;;;;;;20.45;4.05;;;10.00;99.90;;;;;;5138592;27;20104;-83
2023/03/14 00:36:23;;;;;;;16.75;4.32;;;10.00;99.90;;;;;;5107494;28;20490;-83
2023/03/14 00:38:50;;;;;;;23.60;4.25;;;9.90;99.90;;;;;;5106312;28;20558;-84
2023/03/14 00:41:18;;;;;;;15.43;3.45;;;10.00;99.90;;;;;;5103146;28;20035;-83
2023/03/14 00:43:44;;;;;;;21.13;3.83;;;9.90;99.90;;;;;;5109808;28;20086;-84
2023/03/14 00:46:10;;;;;;;21.05;3.70;;;9.90;99.90;;;;;;5089640;28;20067;-84
2023/03/14 00:48:36;;;;;;;20.42;4.15;;;9.90;99.90;;;;;;5110867;28;20471;-84
2023/03/14 00:51:04;;;;;;;15.38;3.03;;;9.90;99.90;;;;;;5141914;27;20070;-84
2023/03/14 00:53:30;;;;;;;19.15;3.65;;;9.80;99.90;;;;;;5090838;28;20473;-84
2023/03/14 00:55:55;;;;;;;15.60;3.63;;;9.80;99.90;;;;;;5084812;28;20075;-83
2023/03/14 00:58:21;;;;;;;17.90;3.80;;;9.90;99.90;;;;;;5106373;28;20083;-84
2023/03/14 01:00:46;;;;;;;19.42;4.00;;;9.90;99.90;;;;;;5110498;28;20082;-84
2023/03/14 01:03:13;;;;;;;18.88;3.25;;;9.80;99.90;;;;;;5104552;28;20507;-82
2023/03/14 01:05:39;;;;;;;17.23;4.05;;;9.90;99.90;;;;;;5102051;28;20030;-83
2023/03/14 01:08:06;;;;;;;14.07;3.45;;;9.90;99.90;;;;;;5109660;28;20107;-84
2023/03/14 01:10:32;;;;;;;20.25;3.78;;;9.90;99.90;;;;;;5105820;28;20024;-83
2023/03/14 01:12:58;;;;;;;16.17;3.95;;;9.80;99.90;;;;;;5091906;28;20431;-84
2023/03/14 01:15:24;;;;;;;18.13;4.00;;;9.90;99.90;;;;;;5137407;27;20046;-84
2023/03/14 01:17:49;;;;;;;15.85;3.20;;;9.80;99.90;;;;;;5091949;28;20141;-83
2023/03/14 01:20:16;;;;;;;15.07;3.63;;;9.80;99.90;;;;;;5103707;28;20027;-84
2023/03/14 01:22:43;;;;;;;12.80;3.30;;;9.90;99.90;;;;;;5108798;28;20093;-84
2023/03/14 01:25:14;;;;;;;16.98;3.30;;;10.00;99.90;;;;;;5109828;28;20109;-84
2023/03/14 01:27:39;;;;;;;14.02;3.25;;;10.00;99.90;;;;;;5093083;28;20471;-83
2023/03/14 01:30:06;;;;;;;18.95;3.53;;;10.00;99.90;;;;;;5136595;27;20118;-84
2023/03/14 01:32:32;;;;;;;22.33;4.45;;;10.10;99.90;;;;;;5104631;28;20114;-84
2023/03/14 01:34:57;;;;;;;13.75;3.40;;;10.20;99.90;;;;;;5138755;27;20139;-84
2023/03/14 01:37:23;;;;;;;12.75;3.30;;;10.30;99.90;;;;;;5145040;27;20026;-85
2023/03/14 01:39:49;;;;;;;13.75;2.92;;;10.30;99.90;;;;;;5084460;28;20078;-84
2023/03/14 01:42:15;;;;;;;17.90;3.90;;;10.40;99.90;;;;;;5140705;27;20071;-81
2023/03/14 01:44:53;;;;;;;10.82;2.83;;;10.30;99.90;;;;;;5103530;28;20044;-82
2023/03/14 01:47:19;;;;;;;11.43;3.30;;;10.40;99.90;;;;;;5105615;28;20067;-81
2023/03/14 01:49:49;;;;;;;15.20;3.05;;;10.40;99.90;;;;;;5102792;28;20514;-82
2023/03/14 01:52:41;;;;;;;15.45;2.75;;;10.40;99.90;;;;;;5105709;28;20077;-82
2023/03/14 01:55:11;;;;;;;12.65;3.22;;;10.40;99.90;;;;;;5086655;28;20054;-84
2023/03/14 01:57:41;;;;;;;23.77;3.50;;;10.30;99.90;;;;;;5103305;28;20491;-82
2023/03/14 02:00:14;;;;;;;16.85;3.63;;;10.30;99.90;;;;;;5108198;28;20042;-83
2023/03/14 02:02:43;;;;;;;15.13;2.60;;;10.30;99.90;;;;;;5104163;28;20031;-82
2023/03/14 02:05:10;;;;;;;15.45;3.10;;;10.30;99.90;;;;;;5103328;28;20043;-82
2023/03/14 02:07:49;;;;;;;13.50;2.97;;;10.30;99.90;;;;;;5102677;28;20371;-83
2023/03/14 02:10:18;;;;;;;15.10;2.83;;;10.20;99.90;;;;;;5110093;28;20043;-82
2023/03/14 02:12:45;;;;;;;12.82;2.90;;;10.20;99.90;;;;;;5105936;28;20096;-82
2023/03/14 02:15:10;;;;;;;12.82;3.22;;;10.20;99.90;;;;;;5087552;28;20031;-83
2023/03/14 02:17:36;;;;;;;10.88;2.10;;;10.20;99.90;;;;;;5143590;27;20504;-83
2023/03/14 02:20:19;;;;;;;12.40;2.55;;;10.10;99.90;;;;;;5111931;28;20410;-83
2023/03/14 02:22:46;;;;;;;13.20;3.08;;;10.10;99.90;;;;;;5107621;28;20041;-83
2023/03/14 02:25:34;;;;;;;14.18;2.55;;;10.00;99.90;;;;;;5107880;28;20097;-83
2023/03/14 02:28:01;;;;;;;14.20;2.50;;;9.90;99.90;;;;;;5112240;28;20402;-82
2023/03/14 02:30:28;;;;;;;13.73;2.33;;;9.80;99.90;;;;;;5088744;28;20118;-83
2023/03/14 02:33:04;;;;;;;9.85;3.05;;;9.80;99.90;;;;;;5108751;28;20035;-83
2023/03/14 02:35:46;;;;;;;10.80;2.72;;;9.80;99.90;;;;;;5104923;28;20043;-82
2023/03/14 02:38:19;;;;;;;14.60;2.80;;;9.70;99.90;;;;;;5104122;28;20047;-82
2023/03/14 02:40:45;;;;;;;8.13;2.08;;;9.80;99.90;;;;;;5094422;28;20047;-82
2023/03/14 02:43:11;;;;;;;11.23;2.30;;;9.80;99.90;;;;;;5141505;27;20418;-83
2023/03/14 02:45:39;;;;;;;13.13;2.40;;;9.70;99.90;;;;;;5104937;28;20030;-83
2023/03/14 02:48:16;;;;;;;8.43;2.38;;;9.80;99.90;;;;;;5143042;27;20376;-83
2023/03/14 02:50:43;;;;;;;11.60;2.45;;;9.80;99.90;;;;;;5113434;28;20058;-82
2023/03/14 02:53:08;;;;;;;11.30;2.42;;;9.80;99.90;;;;;;5107020;28;20067;-82
2023/03/14 02:55:34;;;;;;;12.13;2.47;;;9.80;99.90;;;;;;5087909;28;20489;-82
2023/03/14 02:57:59;;;;;;;10.45;2.28;;;9.80;99.90;;;;;;5106727;28;20133;-82
2023/03/14 03:00:25;;;;;;;12.27;2.80;;;9.80;99.90;;;;;;5122474;27;20174;-83
2023/03/14 03:02:50;;;;;;;11.35;3.13;;;9.80;99.90;;;;;;5112441;28;20445;-83
2023/03/14 03:05:16;;;;;;;12.85;2.67;;;9.70;99.90;;;;;;5112370;28;20081;-82
2023/03/14 03:07:42;;;;;;;9.88;2.45;;;9.60;99.90;;;;;;5105998;28;20066;-81
2023/03/14 03:10:08;;;;;;;11.32;2.92;;;9.50;99.90;;;;;;5108977;28;20407;-82
2023/03/14 03:12:34;;;;;;;8.57;2.38;;;9.50;99.90;;;;;;5107901;28;20040;-83
2023/03/14 03:14:59;;;;;;;11.88;3.13;;;9.40;99.90;;;;;;5108241;28;20028;-82
2023/03/14 03:17:25;;;;;;;12.38;3.03;;;9.30;99.90;;;;;;5126194;27;20032;-82
2023/03/14 03:19:50;;;;;;;11.35;3.47;;;9.30;99.90;;;;;;5104452;28;20054;-82
2023/03/14 03:22:15;;;;;;;11.60;2.80;;;9.20;99.90;;;;;;5110648;28;20142;-81
2023/03/14 03:24:41;;;;;;;12.95;3.20;;;9.10;99.90;;;;;;5104477;28;20058;-81
2023/03/14 03:27:07;;;;;;;10.60;2.90;;;9.00;99.90;;;;;;5142883;27;20114;-82
2023/03/14 03:29:32;;;;;;;12.18;3.80;;;9.00;99.90;;;;;;5108544;28;20031;-82
2023/03/14 03:31:58;;;;;;;13.65;3.25;;;9.00;99.90;;;;;;5106406;28;20081;-81
2023/03/14 03:34:23;;;;;;;10.77;3.40;;;9.00;99.90;;;;;;5106055;28;20036;-81
2023/03/14 03:36:49;;;;;;;13.77;3.83;;;9.00;99.90;;;;;;5109458;28;20043;-82
2023/03/14 03:39:14;;;;;;;14.52;3.55;;;8.90;99.90;;;;;;5106688;28;20047;-82
2023/03/14 03:41:40;;;;;;;11.95;3.80;;;8.90;99.90;;;;;;5111723;28;20035;-82
2023/03/14 03:44:08;;;;;;;13.30;3.65;;;8.90;99.90;;;;;;5088654;28;20035;-82
2023/03/14 03:46:33;;;;;;;14.57;4.43;;;8.90;99.90;;;;;;5103911;28;20034;-82
2023/03/14 03:49:00;;;;;;;11.52;4.65;;;8.90;99.90;;;;;;5094211;28;20036;-82
2023/03/14 03:51:26;;;;;;;12.30;3.95;;;8.90;99.90;;;;;;5108816;28;20523;-83
2023/03/14 03:53:52;;;;;;;14.50;4.22;;;8.90;99.90;;;;;;5104871;28;20499;-83
2023/03/14 03:56:18;;;;;;;13.32;4.07;;;8.80;99.90;;;;;;5144527;27;20035;-83
2023/03/14 03:58:44;;;;;;;15.15;4.30;;;8.90;99.90;;;;;;5087905;28;20055;-83
2023/03/14 04:01:10;;;;;;;16.10;4.30;;;8.90;99.90;;;;;;5106977;28;20042;-84
2023/03/14 04:03:38;;;;;;;16.85;4.78;;;8.90;99.90;;;;;;5122926;27;20046;-82
2023/03/14 04:06:07;;;;;;;15.93;4.63;;;8.90;99.90;;;;;;5092782;28;20564;-82
2023/03/14 04:08:32;;;;;;;18.98;4.82;;;8.80;99.90;;;;;;5091716;28;20027;-82
2023/03/14 04:11:00;;;;;;;14.15;3.80;;;8.80;99.90;;;;;;5139597;27;20034;-82
2023/03/14 04:13:26;;;;;;;14.18;4.82;;;8.80;99.90;;;;;;5104712;28;20539;-82
2023/03/14 04:15:52;;;;;;;15.63;4.53;;;8.80;99.90;;;;;;5108090;28;20426;-83
2023/03/14 04:18:19;;;;;;;15.68;4.45;;;8.80;99.90;;;;;;5094167;28;20046;-82
2023/03/14 04:20:44;;;;;;;13.55;4.50;;;8.80;99.90;;;;;;5111267;28;20043;-83
2023/03/14 04:23:10;;;;;;;13.75;4.55;;;8.80;99.90;;;;;;5123840;27;20502;-83
2023/03/14 04:25:36;;;;;;;16.77;4.90;;;8.80;99.90;;;;;;5139643;27;20060;-82
2023/03/14 04:28:03;;;;;;;13.73;4.80;;;8.80;99.90;;;;;;5090641;28;20032;-83
2023/03/14 04:30:29;;;;;;;15.02;4.63;;;8.80;99.90;;;;;;5079728;28;20497;-83
2023/03/14 04:32:55;;;;;;;14.30;5.10;;;8.80;99.90;;;;;;5111172;28;20101;-83
2023/03/14 04:35:20;;;;;;;13.30;5.10;;;8.80;99.90;;;;;;5145298;27;20153;-84
2023/03/14 04:37:48;;;;;;;13.88;5.68;;;8.80;99.90;;;;;;5137882;27;20089;-83
2023/03/14 04:40:15;;;;;;;14.35;6.20;;;8.80;99.90;;;;;;5109904;28;20042;-83
2023/03/14 04:42:40;;;;;;;16.52;5.82;;;8.80;99.90;;;;;;5101552;28;20028;-83
2023/03/14 04:45:06;;;;;;;14.90;6.00;;;8.80;99.90;;;;;;5102243;28;20036;-82
2023/03/14 04:47:32;;;;;;;14.25;6.20;;;8.70;99.90;;;;;;5106329;28;20111;-83
2023/03/14 04:49:58;;;;;;;14.77;6.43;;;8.70;99.90;;;;;;5110808;28;20055;-84
2023/03/14 04:52:23;;;;;;;17.15;6.85;;;8.70;99.90;;;;;;5086907;28;20027;-83
2023/03/14 04:54:49;;;;;;;15.57;6.72;;;8.80;99.90;;;;;;5119951;27;20686;-83
2023/03/14 04:57:14;;;;;;;14.93;6.60;;;8.70;99.90;;;;;;5106324;28;20036;-82
2023/03/14 04:59:40;;;;;;;15.50;6.60;;;8.70;99.90;;;;;;5088128;28;20074;-83
2023/03/14 05:02:05;;;;;;;12.52;6.00;;;8.70;99.90;;;;;;5142025;27;20515;-83
2023/03/14 05:04:32;;;;;;;15.77;6.80;;;8.70;99.90;;;;;;5107403;28;20044;-84
2023/03/14 05:06:58;;;;;;;11.55;6.22;;;8.70;99.90;;;;;;5102437;28;20096;-83
2023/03/14 05:09:24;;;;;;;16.88;5.68;;;8.70;99.90;;;;;;5103066;28;20039;-82
2023/03/14 05:11:49;;;;;;;14.75;6.03;;;8.70;99.90;;;;;;5140225;27;20462;-81
2023/03/14 05:14:15;;;;;;;14.65;6.30;;;8.70;99.90;;;;;;5104782;28;20040;-83
2023/03/14 05:16:40;;;;;;;13.35;5.57;;;8.60;99.90;;;;;;5103683;28;20089;-82
2023/03/14 05:19:06;;;;;;;14.43;6.15;;;8.60;99.90;;;;;;5109846;28;20471;-82
2023/03/14 05:21:31;;;;;;;15.40;6.28;;;8.60;99.90;;;;;;5138474;27;20415;-82
2023/03/14 05:23:57;;;;;;;17.17;5.80;;;8.60;99.90;;;;;;5090482;28;20503;-82
2023/03/14 05:26:23;;;;;;;17.70;6.45;;;8.60;99.90;;;;;;5088658;28;20028;-82
2023/03/14 05:28:48;;;;;;;12.68;5.53;;;8.50;99.90;;;;;;5102407;28;20169;-83
2023/03/14 05:31:14;;;;;;;13.68;5.68;;;8.50;99.90;;;;;;5106546;28;20047;-82
2023/03/14 05:33:40;;;;;;;12.57;5.50;;;8.50;99.90;;;;;;5088469;28;20043;-82
2023/03/14 05:36:06;;;;;;;12.32;5.95;;;8.60;99.90;;;;;;5103085;28;20046;-83
2023/03/14 05:38:31;;;;;;;14.82;5.55;;;8.50;99.90;;;;;;5085668;28;20039;-82
2023/03/14 05:40:57;;;;;;;14.50;5.60;;;8.50;99.90;;;;;;5140802;27;20142;-81
2023/03/14 05:43:22;;;;;;;20.33;6.45;;;8.50;99.90;;;;;;5102314;28;20518;-82
2023/03/14 05:45:48;;;;;;;14.13;5.53;;;8.50;99.90;;;;;;5143173;27;20388;-82
2023/03/14 05:48:13;;;;;;;14.93;5.70;;;8.50;99.90;;;;;;5137938;27;20028;-82
2023/03/14 05:50:39;;;;;;;15.50;6.20;;;8.50;99.90;;;;;;5141549;27;20062;-82
2023/03/14 05:53:05;;;;;;;16.23;6.20;;;8.50;99.90;;;;;;5103131;28;20115;-82
2023/03/14 05:55:30;;;;;;;10.00;5.03;;;8.50;99.90;;;;;;5104882;28;20039;-82
2023/03/14 05:57:56;;;;;;;12.93;5.20;;;8.50;99.90;;;;;;5108660;28;20054;-81
2023/03/14 06:00:22;;;;;;;13.57;5.43;;;8.50;99.90;;;;;;5108169;28;20491;-81
2023/03/14 06:02:48;;;;;;;11.73;5.32;;;8.50;99.90;;;;;;5106693;28;20131;-80
2023/03/14 06:05:13;;;;;;;11.73;5.35;;;8.50;99.90;;;;;;5109917;28;20498;-81
2023/03/14 06:07:39;;;;;;;10.57;5.53;;;8.50;99.90;;;;;;5143860;27;20036;-81
2023/03/14 06:10:05;;;;;;;11.55;4.70;;;8.50;99.90;;;;;;5112392;28;20066;-80
2023/03/14 06:12:31;;;;;;;7.03;4.40;;;8.50;99.90;;;;;;5110806;28;20027;-82
2023/03/14 06:14:56;;;;;;;14.85;4.93;;;8.50;99.90;;;;;;5090774;28;20047;-82
2023/03/14 06:17:22;;;;;;;9.18;4.32;;;8.60;99.90;;;;;;5123089;27;20059;-82
2023/03/14 06:19:47;;;;;;;13.70;4.53;;;8.60;99.90;;;;;;5109387;28;20113;-82
2023/03/14 06:22:13;;;;;;;8.80;4.65;;;8.60;99.90;;;;;;5141337;27;20043;-82
2023/03/14 06:24:39;;;;;;;10.23;4.75;;;8.60;99.90;;;;;;5112538;28;20510;-81
2023/03/14 06:27:04;;;;;;;10.05;4.57;;;8.60;99.90;;;;;;5109179;28;20035;-82
2023/03/14 06:29:30;;;;;;;8.75;4.53;;;8.60;99.90;;;;;;5140085;27;20032;-82
2023/03/14 06:31:56;;;;;;;5.65;2.42;;;8.60;99.90;;;;;;5104894;28;20036;-82
2023/03/14 06:34:21;;;;;;;4.50;1.10;;;8.50;99.90;;;;;;5136748;27;20584;-81
2023/03/14 06:36:47;;;;;;;7.30;1.08;;;8.00;99.90;;;;;;5109990;28;20168;-82
2023/03/14 06:39:13;;;;;;;9.82;1.35;;;7.40;99.90;;;;;;5103291;28;20122;-82
2023/03/14 06:41:38;;;;;;;6.88;1.60;;;7.10;99.90;;;;;;5144406;27;20112;-82
2023/03/14 06:44:04;;;;;;;8.60;1.45;;;6.80;99.90;;;;;;5143586;27;20035;-81
2023/03/14 06:46:29;;;;;;;5.95;1.13;;;6.70;99.90;;;;;;5112161;28;20122;-81
2023/03/14 06:48:55;;;;;;;9.32;1.50;;;6.60;99.90;;;;;;5108970;28;20403;-81
2023/03/14 06:51:21;;;;;;;14.77;1.65;;;6.40;99.90;;;;;;5101245;28;20064;-82
2023/03/14 06:53:46;;;;;;;8.95;1.85;;;6.20;99.90;;;;;;5092812;28;20039;-82
2023/03/14 06:56:12;;;;;;;9.43;1.40;;;6.00;99.90;;;;;;5103757;28;20088;-83
2023/03/14 06:58:37;;;;;;;16.13;2.20;;;5.80;99.90;;;;;;5109898;28;20051;-83
2023/03/14 07:01:03;;;;;;;10.25;1.50;;;5.60;99.90;;;;;;5087789;28;20095;-83
2023/03/14 07:03:29;;;;;;;8.07;2.15;;;5.50;99.90;;;;;;5110767;28;20050;-83
2023/03/14 07:05:54;;;;;;;8.15;1.50;;;5.40;99.90;;;;;;5106789;28;20039;-82
2023/03/14 07:08:20;;;;;;;10.68;1.17;;;5.10;99.90;;;;;;5138596;27;20118;-82
2023/03/14 07:10:46;;;;;;;13.38;1.70;;;5.00;99.90;;;;;;5139830;27;20074;-83
2023/03/14 07:13:11;;;;;;;8.75;1.00;;;4.90;99.90;;;;;;5090660;28;20526;-83
2023/03/14 07:15:37;;;;;;;7.55;1.48;;;4.80;99.90;;;;;;5108639;28;20036;-83
2023/03/14 07:18:02;;;;;;;7.32;0.80;;;4.80;99.90;;;;;;5141571;27;20039;-84
2023/03/14 07:20:29;;;;;;;9.18;1.10;;;4.70;99.90;;;;;;5091745;28;20123;-82
2023/03/14 07:22:55;;;;;;;6.13;0.80;;;4.60;99.90;;;;;;5096886;28;20050;-82
2023/03/14 07:25:20;;;;;;;8.13;1.20;;;4.50;99.90;;;;;;5110020;28;20024;-85
2023/03/14 07:27:47;;;;;;;3.90;0.57;;;4.50;99.90;;;;;;5086193;28;20127;-85
2023/03/14 07:30:13;;;;;;;7.90;1.27;;;4.40;99.90;;;;;;5099784;28;20438;-85
2023/03/14 07:32:39;;;;;;;5.03;0.70;;;4.60;99.90;;;;;;5107254;28;20028;-85
2023/03/14 07:35:05;;;;;;;4.18;0.85;;;4.30;99.90;;;;;;5105686;28;20089;-85
2023/03/14 07:37:31;;;;;;;4.25;0.50;;;4.20;99.90;;;;;;5143447;27;20040;-85
2023/03/14 07:39:56;;;;;;;7.35;0.73;;;4.20;99.90;;;;;;5092448;28;20035;-85
2023/03/14 07:42:22;;;;;;;3.53;0.45;;;4.20;99.90;;;;;;5119459;27;20045;-86
2023/03/14 07:44:47;;;;;;;3.25;0.80;;;4.20;99.90;;;;;;5140765;27;20044;-85
2023/03/14 07:47:13;;;;;;;4.57;1.02;;;4.20;99.90;;;;;;5121932;27;20042;-86
2023/03/14 07:49:39;;;;;;;1.73;0.38;;;4.20;99.90;;;;;;5143466;27;20028;-85
2023/03/14 07:52:04;;;;;;;4.20;0.52;;;4.20;99.90;;;;;;5141135;27;20031;-85
2023/03/14 07:54:30;;;;;;;7.68;0.88;;;4.20;99.90;;;;;;5140202;27;20118;-86
2023/03/14 07:56:58;;;;;;;2.42;0.55;;;4.20;99.90;;;;;;5107746;28;20051;-85
2023/03/14 07:59:24;;;;;;;4.57;1.13;;;4.20;99.90;;;;;;5097843;28;20039;-85
2023/03/14 08:01:49;;;;;;;5.63;0.63;;;4.20;99.90;;;;;;5139041;27;20038;-85
2023/03/14 08:04:15;;;;;;;3.13;0.60;;;4.30;99.90;;;;;;5138766;27;20042;-85
2023/03/14 08:06:40;;;;;;;7.18;0.90;;;4.30;99.90;;;;;;5106212;28;20047;-85
2023/03/14 08:09:06;;;;;;;4.22;0.60;;;4.40;99.90;;;;;;5139542;27;20032;-86
2023/03/14 08:11:31;;;;;;;3.05;0.40;;;4.40;99.90;;;;;;5111038;28;20066;-85
2023/03/14 08:13:57;;;;;;;4.78;0.60;;;4.50;99.90;;;;;;5081347;28;20100;-85
2023/03/14 08:16:23;;;;;;;4.13;0.70;;;4.60;99.90;;;;;;5101661;28;20036;-85
2023/03/14 08:18:48;;;;;;;4.25;0.50;;;4.70;99.90;;;;;;5110253;28;21600;-85
2023/03/14 08:21:14;;;;;;;6.18;0.60;;;4.80;99.90;;;;;;5137557;27;20411;-85
2023/03/14 08:23:40;;;;;;;6.15;1.27;;;4.90;99.90;;;;;;5107731;28;20097;-85
2023/03/14 08:26:06;;;;;;;3.85;0.70;;;4.90;99.90;;;;;;5141295;27;20414;-84
2023/03/14 08:28:33;;;;;;;4.85;0.73;;;5.00;99.90;;;;;;5103879;28;20449;-85
2023/03/14 08:30:59;;;;;;;6.78;0.90;;;5.10;99.90;;;;;;5091326;28;20631;-85
2023/03/14 08:33:26;;;;;;;4.07;0.70;;;5.20;99.90;;;;;;5094091;28;20431;-85
2023/03/14 08:35:56;;;;;;;8.93;1.13;;;5.20;99.90;;;;;;5144697;27;20035;-86
2023/03/14 08:38:22;;;;;;;7.63;1.15;;;5.30;99.90;;;;;;5103855;28;20411;-85
2023/03/14 08:40:47;;;;;;;7.07;1.42;;;5.40;99.90;;;;;;5096666;28;20048;-86
2023/03/14 08:43:13;;;;;;;7.13;1.25;;;5.50;99.90;;;;;;5106820;28;20149;-86
2023/03/14 08:45:38;;;;;;;7.50;1.48;;;5.60;99.90;;;;;;5134119;27;20028;-86
2023/03/14 08:48:04;;;;;;;8.90;1.25;;;5.80;99.90;;;;;;5092545;28;20092;-86
2023/03/14 08:50:30;;;;;;;9.50;1.55;;;5.90;99.90;;;;;;5105307;27;20063;-86
2023/03/14 08:52:59;;;;;;;12.15;2.25;;;5.90;99.90;;;;;;5144757;27;20405;-85
2023/03/14 08:55:27;;;;;;;11.50;2.10;;;6.00;99.90;;;;;;5105941;28;20081;-86
2023/03/14 08:57:52;;;;;;;12.52;2.35;;;6.10;99.90;;;;;;5102720;28;20391;-86
2023/03/14 09:00:19;;;;;;;9.60;2.65;;;5.90;99.90;;;;;;5104013;28;20081;-85
2023/03/14 09:02:44;;;;;;;13.60;2.05;;;5.90;99.90;;;;;;5089940;28;20498;-85
2023/03/14 09:05:10;;;;;;;12.88;2.17;;;6.00;99.90;;;;;;5112688;27;20063;-85
2023/03/14 09:07:37;;;;;;;14.95;3.25;;;6.10;99.90;;;;;;5100809;27;20111;-85
2023/03/14 09:10:02;;;;;;;12.98;2.17;;;6.20;99.90;;;;;;5092537;28;20055;-86
2023/03/14 09:12:28;;;;;;;14.80;2.47;;;6.30;99.90;;;;;;5102637;28;20507;-86
2023/03/14 09:14:53;;;;;;;13.05;2.35;;;6.30;99.90;;;;;;5102803;28;20417;-86
2023/03/14 09:17:19;;;;;;;21.35;2.78;;;6.20;99.90;;;;;;5104649;28;20036;-86
2023/03/14 09:19:45;;;;;;;16.35;2.60;;;6.20;99.90;;;;;;5107817;28;20249;-86
2023/03/14 09:22:10;;;;;;;14.25;2.60;;;6.30;99.90;;;;;;5110450;27;20037;-85
2023/03/14 09:24:35;;;;;;;12.85;1.90;;;6.50;99.90;;;;;;5116003;28;20032;-85
2023/03/14 09:27:01;;;;;;;17.65;2.75;;;6.40;99.90;;;;;;5112797;28;20503;-85
2023/03/14 09:29:27;;;;;;;15.50;2.60;;;6.40;99.90;;;;;;5128227;27;20043;-85
2023/03/14 09:31:53;;;;;;;19.58;3.15;;;6.40;99.90;;;;;;5110196;28;20088;-85
2023/03/14 09:34:18;;;;;;;23.80;2.67;;;6.30;99.90;;;;;;5103653;28;20101;-85
2023/03/14 09:36:44;;;;;;;17.42;3.15;;;6.20;99.90;;;;;;5078707;28;20036;-86
2023/03/14 09:39:11;;;;;;;16.95;2.30;;;6.20;99.90;;;;;;5102726;28;20410;-83
2023/03/14 09:41:40;;;;;;;15.30;2.17;;;6.20;99.90;;;;;;5086500;28;20084;-83
2023/03/14 09:44:19;;;;;;;19.02;3.10;;;6.20;99.90;;;;;;5101452;28;20123;-84
2023/03/14 09:46:50;;;;;;;17.25;2.47;;;6.20;99.90;;;;;;5104819;28;20044;-84
2023/03/14 09:49:25;;;;;;;15.82;2.42;;;6.30;99.90;;;;;;5087286;28;20603;-83
2023/03/14 09:51:54;;;;;;;12.30;2.08;;;6.30;99.90;;;;;;5126910;27;20024;-84
2023/03/14 09:54:42;;;;;;;14.05;2.50;;;6.40;99.90;;;;;;5103278;28;20035;-83
2023/03/14 09:57:14;;;;;;;10.75;2.03;;;6.40;99.90;;;;;;5104246;28;20468;-85
2023/03/14 09:59:43;;;;;;;17.83;2.25;;;6.30;99.90;;;;;;5106453;28;20499;-85
2023/03/14 10:02:19;;;;;;;17.17;2.58;;;6.30;99.90;;;;;;5105636;28;20122;-83
2023/03/14 10:04:47;;;;;;;12.40;2.42;;;6.20;99.90;;;;;;5107000;28;20088;-84
2023/03/14 10:07:20;;;;;;;14.43;2.80;;;6.20;99.90;;;;;;5105167;28;20027;-85
2023/03/14 10:09:49;;;;;;;15.90;2.63;;;6.10;99.90;;;;;;5090089;28;20107;-84
2023/03/14 10:12:16;;;;;;;14.50;2.58;;;6.10;99.90;;;;;;5110096;28;20036;-84
2023/03/14 10:14:49;;;;;;;19.95;3.03;;;6.20;99.90;;;;;;5109939;28;20044;-84
2023/03/14 10:17:16;;;;;;;15.07;2.65;;;6.30;99.90;;;;;;5106479;28;20039;-84
2023/03/14 10:19:59;;;;;;;12.75;2.63;;;6.30;99.90;;;;;;5092146;28;20544;-84
2023/03/14 10:22:30;;;;;;;18.95;2.85;;;6.40;99.90;;;;;;5109556;28;20035;-84
2023/03/14 10:24:59;;;;;;;10.88;2.20;;;6.40;99.90;;;;;;5101891;28;20035;-83
2023/03/14 10:27:35;;;;;;;13.18;2.20;;;6.50;99.90;;;;;;5102719;28;20040;-85
2023/03/14 10:30:08;;;;;;;15.30;2.28;;;6.60;99.90;;;;;;5099621;28;20188;-84
2023/03/14 10:32:41;;;;;;;10.80;2.08;;;6.70;99.90;;;;;;5106662;28;20031;-83
2023/03/14 10:35:13;;;;;;;14.25;2.13;;;6.70;99.90;;;;;;5104133;28;20038;-85
2023/03/14 10:38:11;;;;;;;11.40;2.33;;;6.70;99.90;;;;;;5134975;27;20050;-84
2023/03/14 10:40:39;;;;;;;14.63;2.70;;;6.80;99.90;;;;;;5143195;27;20039;-83
2023/03/14 10:43:13;;;;;;;13.77;2.38;;;6.70;99.90;;;;;;5082428;28;20520;-84
2023/03/14 10:45:45;;;;;;;17.45;2.25;;;6.60;99.90;;;;;;5104120;28;20028;-85
2023/03/14 10:48:21;;;;;;;15.75;1.92;;;6.50;99.90;;;;;;5090743;28;20038;-83
2023/03/14 10:51:03;;;;;;;13.95;1.90;;;6.60;99.90;;;;;;5110172;28;20042;-84
2023/03/14 10:53:38;;;;;;;11.57;2.45;;;6.90;99.90;;;;;;5105174;28;20563;-83
2023/03/14 10:56:05;;;;;;;10.32;1.67;;;7.10;99.90;;;;;;5113323;28;20491;-82
2023/03/14 10:58:34;;;;;;;10.32;1.98;;;7.10;99.90;;;;;;5101778;28;20453;-83
2023/03/14 11:01:06;;;;;;;9.45;1.52;;;6.90;99.90;;;;;;5107074;28;20039;-84
2023/03/14 11:03:35;;;;;;;10.48;1.48;;;6.70;99.90;;;;;;5110379;28;20146;-83
2023/03/14 11:06:13;;;;;;;9.48;1.67;;;6.60;99.90;;;;;;5115130;28;20053;-83
2023/03/14 11:09:05;;;;;;;12.30;2.03;;;6.80;99.90;;;;;;5150748;27;20086;-85
2023/03/14 11:11:31;;;;;;;6.40;1.63;;;7.20;99.90;;;;;;5104226;28;20125;-83
2023/03/14 11:14:18;;;;;;;9.25;2.22;;;7.40;99.90;;;;;;5112615;28;20047;-84
2023/03/14 11:17:05;;;;;;;9.95;1.45;;;7.60;99.90;;;;;;5097425;28;20129;-83
2023/03/14 11:20:08;;;;;;;9.23;1.70;;;7.70;99.90;;;;;;5094126;28;20039;-84
2023/03/14 11:22:47;;;;;;;6.50;1.52;;;7.50;99.90;;;;;;5114827;28;20043;-85
2023/03/14 11:25:49;;;;;;;7.45;1.70;;;7.20;99.90;;;;;;5109343;28;20524;-83
2023/03/14 11:28:22;;;;;;;6.68;1.17;;;6.90;99.90;;;;;;5088214;28;20036;-83
2023/03/14 11:30:54;;;;;;;5.10;0.97;;;6.80;99.90;;;;;;5112437;28;20092;-84
2023/03/14 11:33:32;;;;;;;9.52;1.45;;;6.80;99.90;;;;;;5113170;28;20280;-83
2023/03/14 11:36:06;;;;;;;6.75;1.65;;;7.10;99.90;;;;;;5113623;28;20536;-83
2023/03/14 11:38:48;;;;;;;6.75;1.10;;;7.40;99.90;;;;;;5089928;28;20035;-83
2023/03/14 11:41:29;;;;;;;8.77;1.00;;;7.30;99.90;;;;;;5090988;28;20083;-84
2023/03/14 11:43:57;;;;;;;6.72;0.98;;;7.10;99.90;;;;;;5106779;28;20032;-83
2023/03/14 11:46:54;;;;;;;5.90;1.27;;;7.00;99.90;;;;;;5096598;28;20070;-84
2023/03/14 11:49:32;;;;;;;8.40;2.10;;;7.30;99.90;;;;;;5110513;28;20035;-83
2023/03/14 11:52:05;;;;;;;6.50;1.23;;;7.60;99.90;;;;;;5093250;28;20435;-81
2023/03/14 11:54:39;;;;;;;5.20;1.30;;;7.60;99.90;;;;;;5105706;28;20039;-83
2023/03/14 11:57:09;;;;;;;;;;;7.80;99.90;;;;;;5107193;28;20047;-84
2023/03/14 12:00:04;;;;;;;10.95;1.20;;;7.80;99.90;;;;;;5104298;28;19920;-84
2023/03/14 12:02:30;;;;;;;4.57;1.05;;;8.10;99.90;;;;;;5137223;27;20439;-83
2023/03/14 12:05:20;;;;;;;4.43;1.30;;;8.30;99.90;;;;;;5131444;27;20036;-83
2023/03/14 12:08:07;;;;;;;5.10;1.30;;;8.20;99.90;;;;;;5112093;28;20032;-85
2023/03/14 12:10:43;;;;;;;4.78;1.02;;;7.90;99.90;;;;;;5093377;28;20057;-85
2023/03/14 12:13:14;;;;;;;6.20;1.38;;;7.40;99.90;;;;;;5111856;28;20032;-84
2023/03/14 12:15:47;;;;;;;9.00;1.42;;;7.30;99.90;;;;;;5099884;28;20027;-84
2023/03/14 12:18:19;;;;;;;8.95;1.30;;;7.50;99.90;;;;;;5106514;28;20031;-85
2023/03/14 12:20:54;;;;;;;6.50;1.17;;;7.60;99.90;;;;;;5091145;28;20074;-84
2023/03/14 12:23:20;;;;;;;10.23;1.23;;;7.50;99.90;;;;;;5107662;28;20417;-83
2023/03/14 12:25:45;;;;;;;8.82;1.40;;;7.40;99.90;;;;;;5109473;28;20118;-84
2023/03/14 12:28:30;;;;;;;5.63;1.00;;;7.30;99.90;;;;;;5138116;27;20070;-83
2023/03/14 12:30:56;;;;;;;6.63;1.30;;;7.20;99.90;;;;;;5107802;27;20114;-83
2023/03/14 12:33:29;;;;;;;7.10;1.50;;;7.20;99.90;;;;;;5094589;27;20074;-84
2023/03/14 12:36:00;;;;;;;4.18;0.98;;;7.60;99.90;;;;;;5127259;27;20055;-82
2023/03/14 12:38:35;;;;;;;9.75;1.77;;;7.80;99.90;;;;;;5122361;27;20036;-83
2023/03/14 12:41:14;;;;;;;6.75;2.00;;;7.90;99.90;;;;;;5110907;27;20456;-83
2023/03/14 12:43:40;;;;;;;9.85;1.92;;;8.00;99.90;;;;;;5090649;28;20122;-84
2023/03/14 12:46:18;;;;;;;11.20;1.58;;;7.80;99.90;;;;;;5092990;28;20118;-83
2023/03/14 12:48:46;;;;;;;9.77;1.58;;;7.60;99.90;;;;;;5138172;27;20047;-84
2023/03/14 12:51:14;;;;;;;10.85;1.65;;;7.50;99.90;;;;;;5105479;27;20038;-82
2023/03/14 12:53:49;;;;;;;8.43;1.25;;;7.40;99.90;;;;;;5114056;27;20063;-83
2023/03/14 12:56:39;;;;;;;8.18;1.50;;;7.40;99.90;;;;;;5135487;27;20035;-84
2023/03/14 12:59:35;;;;;;;7.53;1.30;;;7.30;99.90;;;;;;5107814;28;20039;-84